sensor_id;sensor_type;location;lat;lon;timestamp;pressure;altitude;pressure_sealevel;temperature;humidity
8160;BME280;27404;52.398;9.646;2023-03-20T00:01:37;101012.91;;;9.35;100.00
8160;BME280;27404;52.398;9.646;2023-03-20T00:04:03;101007.38;;;9.42;100.00
8160;BME280;27404;52.398;9.646;2023-03-20T00:06:28;101008.25;;;9.36;100.00
8160;BME280;27404;52.398;9.646;2023-03-20T00:08:54;101014.19;;;9.26;100.00
8160;BME280;27404;52.398;9.646;2023-03-20T00:11:28;101011.34;;;9.14;100.00
8160;BME280;27404;52.398;9.646;2023-03-20T00:13:57;101025.22;;;9.06;100.00
8160;BME280;27404;52.398;9.646;2023-03-20T00:16:28;101025.06;;;8.94;100.00
8160;BME280;27404;52.398;9.646;2023-03-20T00:18:54;101023.38;;;8.86;100.00
8160;BME280;27404;52.398;9.646;2023-03-20T00:21:20;101024.03;;;8.81;100.00
8160;BME280;27404;52.398;9.646;2023-03-20T00:23:46;101023.00;;;8.76;100.00
8160;BME280;27404;52.398;9.646;2023-03-20T00:26:16;101026.38;;;8.64;100.00
8160;BME280;27404;52.398;9.646;2023-03-20T00:28:46;101035.81;;;8.62;100.00
8160;BME280;27404;52.398;9.646;2023-03-20T00:31:30;101033.53;;;8.58;100.00
8160;BME280;27404;52.398;9.646;2023-03-20T00:33:59;101039.41;;;8.49;100.00
8160;BME280;27404;52.398;9.646;2023-03-20T00:36:25;101028.72;;;8.40;100.00
8160;BME280;27404;52.398;9.646;2023-03-20T00:38:51;101039.59;;;8.40;100.00
8160;BME280;27404;52.398;9.646;2023-03-20T00:41:26;101027.00;;;8.46;100.00
8160;BME280;27404;52.398;9.646;2023-03-20T00:46:40;101032.47;;;8.39;100.00
8160;BME280;27404;52.398;9.646;2023-03-20T00:49:09;101029.31;;;8.36;100.00
8160;BME280;27404;52.398;9.646;2023-03-20T00:51:35;101026.59;;;8.36;100.00
8160;BME280;27404;52.398;9.646;2023-03-20T00:54:09;101023.69;;;8.37;100.00
8160;BME280;27404;52.398;9.646;2023-03-20T00:56:40;101026.81;;;8.41;100.00
8160;BME280;27404;52.398;9.646;2023-03-20T00:59:16;101018.22;;;8.37;100.00
8160;BME280;27404;52.398;9.646;2023-03-20T01:01:42;101022.00;;;8.36;100.00
8160;BME280;27404;52.398;9.646;2023-03-20T01:04:13;101023.06;;;8.35;100.00
8160;BME280;27404;52.398;9.646;2023-03-20T01:06:39;101025.56;;;8.37;100.00
8160;BME280;27404;52.398;9.646;2023-03-20T01:09:05;101023.88;;;8.36;100.00
8160;BME280;27404;52.398;9.646;2023-03-20T01:11:31;101020.09;;;8.37;100.00
8160;BME280;27404;52.398;9.646;2023-03-20T01:13:56;101027.66;;;8.35;100.00
8160;BME280;27404;52.398;9.646;2023-03-20T01:16:24;101022.81;;;8.37;100.00
8160;BME280;27404;52.398;9.646;2023-03-20T01:18:51;101023.25;;;8.40;100.00
8160;BME280;27404;52.398;9.646;2023-03-20T01:21:18;101020.53;;;8.34;100.00
8160;BME280;27404;52.398;9.646;2023-03-20T01:23:45;101018.44;;;8.29;100.00
8160;BME280;27404;52.398;9.646;2023-03-20T01:26:31;101019.91;;;8.32;100.00
8160;BME280;27404;52.398;9.646;2023-03-20T01:28:58;101021.38;;;8.34;100.00
8160;BME280;27404;52.398;9.646;2023-03-20T01:31:23;101032.66;;;8.38;100.00
8160;BME280;27404;52.398;9.646;2023-03-20T01:33:49;101037.31;;;8.37;100.00
8160;BME280;27404;52.398;9.646;2023-03-20T01:36:17;101036.03;;;8.40;100.00
8160;BME280;27404;52.398;9.646;2023-03-20T01:38:44;101037.06;;;8.39;100.00
8160;BME280;27404;52.398;9.646;2023-03-20T01:41:15;101040.22;;;8.42;100.00
8160;BME280;27404;52.398;9.646;2023-03-20T01:43:41;101047.16;;;8.38;100.00
8160;BME280;27404;52.398;9.646;2023-03-20T01:51:27;101035.84;;;8.21;100.00
8160;BME280;27404;52.398;9.646;2023-03-20T01:54:01;101035.63;;;8.16;100.00
8160;BME280;27404;52.398;9.646;2023-03-20T01:56:31;101045.47;;;8.10;100.00
8160;BME280;27404;52.398;9.646;2023-03-20T01:59:02;101036.47;;;8.17;100.00
8160;BME280;27404;52.398;9.646;2023-03-20T02:01:30;101042.34;;;8.20;100.00
8160;BME280;27404;52.398;9.646;2023-03-20T02:03:55;101040.66;;;8.19;100.00
8160;BME280;27404;52.398;9.646;2023-03-20T02:06:23;101033.75;;;8.23;100.00
8160;BME280;27404;52.398;9.646;2023-03-20T02:08:51;101043.41;;;8.19;100.00
8160;BME280;27404;52.398;9.646;2023-03-20T02:11:19;101046.50;;;8.09;100.00
8160;BME280;27404;52.398;9.646;2023-03-20T02:13:46;101045.06;;;8.13;100.00
8160;BME280;27404;52.398;9.646;2023-03-20T02:16:13;101056.78;;;8.14;100.00
8160;BME280;27404;52.398;9.646;2023-03-20T02:18:42;101057.63;;;8.14;100.00
8160;BME280;27404;52.398;9.646;2023-03-20T02:22:13;101062.44;;;8.12;100.00
8160;BME280;27404;52.398;9.646;2023-03-20T02:24:57;101054.50;;;8.11;100.00
8160;BME280;27404;52.398;9.646;2023-03-20T02:42:14;101041.88;;;7.69;100.00
8160;BME280;27404;52.398;9.646;2023-03-20T02:45:03;101041.44;;;7.59;100.00
8160;BME280;27404;52.398;9.646;2023-03-20T02:47:48;101046.25;;;7.57;100.00
8160;BME280;27404;52.398;9.646;2023-03-20T02:50:25;101043.09;;;7.47;100.00
8160;BME280;27404;52.398;9.646;2023-03-20T02:53:18;101038.66;;;7.39;100.00
8160;BME280;27404;52.398;9.646;2023-03-20T02:58:27;101036.13;;;7.31;100.00
8160;BME280;27404;52.398;9.646;2023-03-20T03:01:12;101037.81;;;7.38;100.00
8160;BME280;27404;52.398;9.646;2023-03-20T03:03:59;101024.63;;;7.35;100.00
8160;BME280;27404;52.398;9.646;2023-03-20T03:06:30;101025.28;;;7.37;100.00
8160;BME280;27404;52.398;9.646;2023-03-20T03:09:04;101031.53;;;7.38;100.00
8160;BME280;27404;52.398;9.646;2023-03-20T03:11:33;101030.09;;;7.42;100.00
8160;BME280;27404;52.398;9.646;2023-03-20T03:14:00;101040.50;;;7.32;100.00
8160;BME280;27404;52.398;9.646;2023-03-20T03:16:29;101037.16;;;7.30;100.00
8160;BME280;27404;52.398;9.646;2023-03-20T03:19:04;101033.59;;;7.22;100.00
8160;BME280;27404;52.398;9.646;2023-03-20T03:21:31;101032.09;;;7.20;100.00
8160;BME280;27404;52.398;9.646;2023-03-20T03:23:58;101031.25;;;7.13;100.00
8160;BME280;27404;52.398;9.646;2023-03-20T03:26:26;101029.50;;;6.98;100.00
8160;BME280;27404;52.398;9.646;2023-03-20T03:29:01;101034.03;;;6.84;100.00
8160;BME280;27404;52.398;9.646;2023-03-20T03:31:28;101031.31;;;6.77;100.00
8160;BME280;27404;52.398;9.646;2023-03-20T03:33:58;101038.59;;;6.77;100.00
8160;BME280;27404;52.398;9.646;2023-03-20T03:41:38;101038.31;;;6.58;100.00
8160;BME280;27404;52.398;9.646;2023-03-20T03:44:28;101039.09;;;6.52;100.00
8160;BME280;27404;52.398;9.646;2023-03-20T03:47:15;101048.03;;;6.46;100.00
8160;BME280;27404;52.398;9.646;2023-03-20T03:49:50;101046.34;;;6.45;100.00
8160;BME280;27404;52.398;9.646;2023-03-20T03:52:23;101049.06;;;6.45;100.00
8160;BME280;27404;52.398;9.646;2023-03-20T03:54:53;101052.63;;;6.45;100.00
8160;BME280;27404;52.398;9.646;2023-03-20T03:57:27;101050.13;;;6.50;100.00
8160;BME280;27404;52.398;9.646;2023-03-20T03:59:55;101058.78;;;6.61;100.00
8160;BME280;27404;52.398;9.646;2023-03-20T04:02:23;101046.66;;;6.63;100.00
8160;BME280;27404;52.398;9.646;2023-03-20T04:04:51;101048.41;;;6.71;100.00
8160;BME280;27404;52.398;9.646;2023-03-20T04:07:17;101054.91;;;6.77;100.00
8160;BME280;27404;52.398;9.646;2023-03-20T04:09:42;101055.59;;;6.86;100.00
8160;BME280;27404;52.398;9.646;2023-03-20T04:12:32;101056.25;;;6.94;100.00
8160;BME280;27404;52.398;9.646;2023-03-20T04:14:58;101050.22;;;6.99;100.00
8160;BME280;27404;52.398;9.646;2023-03-20T04:17:23;101042.66;;;6.94;100.00
8160;BME280;27404;52.398;9.646;2023-03-20T04:19:49;101043.53;;;6.95;100.00
8160;BME280;27404;52.398;9.646;2023-03-20T04:22:14;101050.03;;;7.01;100.00
8160;BME280;27404;52.398;9.646;2023-03-20T04:24:40;101038.28;;;7.00;100.00
8160;BME280;27404;52.398;9.646;2023-03-20T04:27:05;101049.56;;;6.97;100.00
8160;BME280;27404;52.398;9.646;2023-03-20T04:29:30;101038.91;;;6.95;100.00
8160;BME280;27404;52.398;9.646;2023-03-20T04:31:56;101032.66;;;7.02;100.00
8160;BME280;27404;52.398;9.646;2023-03-20T04:34:22;101036.44;;;7.01;100.00
8160;BME280;27404;52.398;9.646;2023-03-20T04:36:47;101034.75;;;7.00;100.00
8160;BME280;27404;52.398;9.646;2023-03-20T04:39:13;101030.53;;;6.97;100.00
8160;BME280;27404;52.398;9.646;2023-03-20T04:41:39;101032.47;;;7.03;100.00
8160;BME280;27404;52.398;9.646;2023-03-20T04:44:05;101032.44;;;6.96;100.00
8160;BME280;27404;52.398;9.646;2023-03-20T04:46:30;101031.81;;;7.01;100.00
8160;BME280;27404;52.398;9.646;2023-03-20T04:48:56;101027.63;;;6.99;100.00
8160;BME280;27404;52.398;9.646;2023-03-20T04:51:21;101027.25;;;7.08;100.00
8160;BME280;27404;52.398;9.646;2023-03-20T04:53:46;101027.25;;;7.08;100.00
8160;BME280;27404;52.398;9.646;2023-03-20T04:56:12;101028.09;;;7.09;100.00
8160;BME280;27404;52.398;9.646;2023-03-20T04:58:37;101024.53;;;7.08;100.00
8160;BME280;27404;52.398;9.646;2023-03-20T05:01:03;101023.31;;;7.11;100.00
8160;BME280;27404;52.398;9.646;2023-03-20T05:03:28;101031.69;;;7.16;100.00
8160;BME280;27404;52.398;9.646;2023-03-20T05:05:54;101016.84;;;7.19;100.00
8160;BME280;27404;52.398;9.646;2023-03-20T05:08:19;101022.69;;;7.16;100.00
8160;BME280;27404;52.398;9.646;2023-03-20T05:10:45;101023.94;;;7.20;100.00
8160;BME280;27404;52.398;9.646;2023-03-20T05:13:10;101023.34;;;7.24;100.00
8160;BME280;27404;52.398;9.646;2023-03-20T05:15:36;101015.16;;;7.18;100.00
8160;BME280;27404;52.398;9.646;2023-03-20T05:18:02;101020.84;;;7.30;100.00
8160;BME280;27404;52.398;9.646;2023-03-20T05:20:27;101014.78;;;7.28;100.00
8160;BME280;27404;52.398;9.646;2023-03-20T05:22:53;101015.84;;;7.33;100.00
8160;BME280;27404;52.398;9.646;2023-03-20T05:25:18;101011.03;;;7.35;100.00
8160;BME280;27404;52.398;9.646;2023-03-20T05:27:45;101014.41;;;7.37;100.00
8160;BME280;27404;52.398;9.646;2023-03-20T05:30:12;101017.75;;;7.39;100.00
8160;BME280;27404;52.398;9.646;2023-03-20T05:32:37;101013.75;;;7.42;100.00
8160;BME280;27404;52.398;9.646;2023-03-20T05:35:03;101019.66;;;7.46;100.00
8160;BME280;27404;52.398;9.646;2023-03-20T05:37:29;101019.44;;;7.47;100.00
8160;BME280;27404;52.398;9.646;2023-03-20T05:39:55;101021.09;;;7.48;100.00
8160;BME280;27404;52.398;9.646;2023-03-20T05:42:20;101019.66;;;7.46;100.00
8160;BME280;27404;52.398;9.646;2023-03-20T05:44:46;101028.66;;;7.60;100.00
8160;BME280;27404;52.398;9.646;2023-03-20T05:47:11;101025.53;;;7.63;100.00
8160;BME280;27404;52.398;9.646;2023-03-20T05:49:36;101024.72;;;7.69;100.00
8160;BME280;27404;52.398;9.646;2023-03-20T05:52:02;101024.94;;;7.74;100.00
8160;BME280;27404;52.398;9.646;2023-03-20T05:54:27;101016.34;;;7.77;100.00
8160;BME280;27404;52.398;9.646;2023-03-20T05:56:53;101014.47;;;7.78;100.00
8160;BME280;27404;52.398;9.646;2023-03-20T05:59:18;101017.00;;;7.79;100.00
8160;BME280;27404;52.398;9.646;2023-03-20T06:01:44;101022.41;;;7.73;100.00
8160;BME280;27404;52.398;9.646;2023-03-20T06:04:09;101022.63;;;7.78;100.00
8160;BME280;27404;52.398;9.646;2023-03-20T06:06:35;101025.97;;;7.80;100.00
8160;BME280;27404;52.398;9.646;2023-03-20T06:09:03;101027.47;;;7.82;100.00
8160;BME280;27404;52.398;9.646;2023-03-20T06:11:29;101029.75;;;7.79;100.00
8160;BME280;27404;52.398;9.646;2023-03-20T06:13:54;101029.13;;;7.83;100.00
8160;BME280;27404;52.398;9.646;2023-03-20T06:16:22;101032.69;;;7.84;100.00
8160;BME280;27404;52.398;9.646;2023-03-20T06:18:48;101040.66;;;7.85;100.00
8160;BME280;27404;52.398;9.646;2023-03-20T06:21:13;101040.66;;;7.85;100.00
8160;BME280;27404;52.398;9.646;2023-03-20T06:23:39;101044.19;;;7.86;100.00
8160;BME280;27404;52.398;9.646;2023-03-20T06:26:05;101045.47;;;7.90;100.00
8160;BME280;27404;52.398;9.646;2023-03-20T06:28:30;101042.97;;;7.95;100.00
8160;BME280;27404;52.398;9.646;2023-03-20T06:30:56;101044.00;;;7.94;100.00
8160;BME280;27404;52.398;9.646;2023-03-20T06:33:22;101051.75;;;7.91;100.00
8160;BME280;27404;52.398;9.646;2023-03-20T06:35:47;101048.00;;;7.92;100.00
8160;BME280;27404;52.398;9.646;2023-03-20T06:38:13;101047.56;;;8.02;100.00
8160;BME280;27404;52.398;9.646;2023-03-20T06:40:39;101051.97;;;8.03;100.00
8160;BME280;27404;52.398;9.646;2023-03-20T06:43:06;101059.72;;;8.06;100.00
8160;BME280;27404;52.398;9.646;2023-03-20T06:45:31;101065.56;;;8.09;100.00
8160;BME280;27404;52.398;9.646;2023-03-20T06:47:57;101058.66;;;8.13;100.00
8160;BME280;27404;52.398;9.646;2023-03-20T06:50:22;101062.25;;;8.14;100.00
8160;BME280;27404;52.398;9.646;2023-03-20T06:52:48;101063.09;;;8.21;100.00
8160;BME280;27404;52.398;9.646;2023-03-20T06:55:13;101061.63;;;8.25;100.00
8160;BME280;27404;52.398;9.646;2023-03-20T06:57:39;101062.66;;;8.31;100.00
8160;BME280;27404;52.398;9.646;2023-03-20T07:00:06;101056.59;;;8.29;100.00
8160;BME280;27404;52.398;9.646;2023-03-20T07:02:32;101059.94;;;8.31;100.00
8160;BME280;27404;52.398;9.646;2023-03-20T07:04:57;101057.41;;;8.36;100.00
8160;BME280;27404;52.398;9.646;2023-03-20T07:07:23;101059.69;;;8.46;100.00
8160;BME280;27404;52.398;9.646;2023-03-20T07:09:49;101059.31;;;8.63;100.00
8160;BME280;27404;52.398;9.646;2023-03-20T07:12:15;101056.97;;;8.66;100.00
8160;BME280;27404;52.398;9.646;2023-03-20T07:14:44;101058.44;;;8.69;100.00
8160;BME280;27404;52.398;9.646;2023-03-20T07:17:10;101060.31;;;8.82;100.00
8160;BME280;27404;52.398;9.646;2023-03-20T07:19:35;101057.81;;;8.80;100.00
8160;BME280;27404;52.398;9.646;2023-03-20T07:22:06;101054.06;;;8.68;100.00
8160;BME280;27404;52.398;9.646;2023-03-20T07:24:33;101059.50;;;8.68;100.00
8160;BME280;27404;52.398;9.646;2023-03-20T07:26:59;101064.31;;;8.72;100.00
8160;BME280;27404;52.398;9.646;2023-03-20T07:29:25;101062.25;;;8.61;100.00
8160;BME280;27404;52.398;9.646;2023-03-20T07:31:50;101075.22;;;8.66;100.00
8160;BME280;27404;52.398;9.646;2023-03-20T07:34:16;101074.16;;;8.73;100.00
8160;BME280;27404;52.398;9.646;2023-03-20T07:36:42;101075.63;;;8.69;100.00
8160;BME280;27404;52.398;9.646;2023-03-20T07:39:08;101076.25;;;8.71;100.00
8160;BME280;27404;52.398;9.646;2023-03-20T07:41:35;101081.06;;;8.69;100.00
8160;BME280;27404;52.398;9.646;2023-03-20T07:44:01;101083.81;;;8.69;100.00
8160;BME280;27404;52.398;9.646;2023-03-20T07:46:26;101085.28;;;8.65;100.00
8160;BME280;27404;52.398;9.646;2023-03-20T07:48:51;101074.41;;;8.52;100.00
8160;BME280;27404;52.398;9.646;2023-03-20T07:51:17;101079.84;;;8.58;100.00
8160;BME280;27404;52.398;9.646;2023-03-20T07:53:42;101082.56;;;8.65;100.00
8160;BME280;27404;52.398;9.646;2023-03-20T07:56:08;101082.56;;;8.72;100.00
8160;BME280;27404;52.398;9.646;2023-03-20T07:58:34;101084.22;;;8.80;100.00
8160;BME280;27404;52.398;9.646;2023-03-20T08:00:59;101082.34;;;8.80;100.00
8160;BME280;27404;52.398;9.646;2023-03-20T08:03:25;101083.16;;;8.81;100.00
8160;BME280;27404;52.398;9.646;2023-03-20T08:05:50;101085.25;;;8.85;100.00
8160;BME280;27404;52.398;9.646;2023-03-20T08:08:15;101099.09;;;8.84;100.00
8160;BME280;27404;52.398;9.646;2023-03-20T08:10:41;101094.50;;;8.78;100.00
8160;BME280;27404;52.398;9.646;2023-03-20T08:13:06;101103.53;;;8.78;100.00
8160;BME280;27404;52.398;9.646;2023-03-20T08:15:32;101094.50;;;8.84;100.00
8160;BME280;27404;52.398;9.646;2023-03-20T08:17:57;101104.16;;;8.80;100.00
8160;BME280;27404;52.398;9.646;2023-03-20T08:20:23;101096.16;;;8.92;100.00
8160;BME280;27404;52.398;9.646;2023-03-20T08:22:48;101102.19;;;9.01;100.00
8160;BME280;27404;52.398;9.646;2023-03-20T08:25:14;101096.31;;;9.04;100.00
8160;BME280;27404;52.398;9.646;2023-03-20T08:27:40;101085.63;;;9.02;100.00
8160;BME280;27404;52.398;9.646;2023-03-20T08:30:06;101091.28;;;9.01;100.00
8160;BME280;27404;52.398;9.646;2023-03-20T08:32:33;101093.56;;;9.17;100.00
8160;BME280;27404;52.398;9.646;2023-03-20T08:34:58;101102.31;;;9.33;100.00
8160;BME280;27404;52.398;9.646;2023-03-20T08:37:24;101093.22;;;9.53;100.00
8160;BME280;27404;52.398;9.646;2023-03-20T08:39:49;101105.63;;;9.48;100.00
8160;BME280;27404;52.398;9.646;2023-03-20T08:42:15;101104.84;;;9.28;100.00
8160;BME280;27404;52.398;9.646;2023-03-20T08:44:40;101111.56;;;9.32;100.00
8160;BME280;27404;52.398;9.646;2023-03-20T08:47:06;101108.81;;;9.32;100.00
8160;BME280;27404;52.398;9.646;2023-03-20T08:49:34;101117.19;;;9.37;100.00
8160;BME280;27404;52.398;9.646;2023-03-20T08:52:01;101110.47;;;9.40;100.00
8160;BME280;27404;52.398;9.646;2023-03-20T08:54:27;101103.56;;;9.37;100.00
8160;BME280;27404;52.398;9.646;2023-03-20T08:56:52;101112.59;;;9.31;100.00
8160;BME280;27404;52.398;9.646;2023-03-20T08:59:17;101108.00;;;9.25;100.00
8160;BME280;27404;52.398;9.646;2023-03-20T09:01:44;101108.25;;;9.16;100.00
8160;BME280;27404;52.398;9.646;2023-03-20T09:04:11;101106.38;;;9.10;100.00
8160;BME280;27404;52.398;9.646;2023-03-20T09:06:37;101104.69;;;9.09;100.00
8160;BME280;27404;52.398;9.646;2023-03-20T09:09:02;101111.63;;;9.05;100.00
8160;BME280;27404;52.398;9.646;2023-03-20T09:11:28;101115.03;;;8.94;100.00
8160;BME280;27404;52.398;9.646;2023-03-20T09:13:53;101116.25;;;9.04;100.00
8160;BME280;27404;52.398;9.646;2023-03-20T09:16:19;101110.81;;;9.04;100.00
8160;BME280;27404;52.398;9.646;2023-03-20T09:18:44;101119.16;;;9.16;100.00
8160;BME280;27404;52.398;9.646;2023-03-20T09:21:10;101112.69;;;9.11;100.00
8160;BME280;27404;52.398;9.646;2023-03-20T09:23:35;101118.75;;;9.13;100.00
8160;BME280;27404;52.398;9.646;2023-03-20T09:26:01;101118.34;;;9.02;100.00
8160;BME280;27404;52.398;9.646;2023-03-20T09:28:27;101115.19;;;8.99;100.00
8160;BME280;27404;52.398;9.646;2023-03-20T09:30:58;101122.59;;;8.92;100.00
8160;BME280;27404;52.398;9.646;2023-03-20T09:33:25;101122.34;;;9.00;100.00
8160;BME280;27404;52.398;9.646;2023-03-20T09:35:51;101124.25;;;8.93;100.00
8160;BME280;27404;52.398;9.646;2023-03-20T09:38:17;101125.47;;;9.10;100.00
8160;BME280;27404;52.398;9.646;2023-03-20T09:40:59;101121.13;;;9.55;100.00
8160;BME280;27404;52.398;9.646;2023-03-20T09:43:41;101126.63;;;10.19;100.00
8160;BME280;27404;52.398;9.646;2023-03-20T09:51:56;101117.00;;;10.67;100.00
8160;BME280;27404;52.398;9.646;2023-03-20T09:54:44;101124.59;;;10.40;100.00
8160;BME280;27404;52.398;9.646;2023-03-20T09:57:19;101130.72;;;10.35;100.00
8160;BME280;27404;52.398;9.646;2023-03-20T09:59:47;101130.69;;;10.42;100.00
8160;BME280;27404;52.398;9.646;2023-03-20T10:02:24;101126.75;;;10.31;100.00
8160;BME280;27404;52.398;9.646;2023-03-20T10:04:54;101116.53;;;10.19;100.00
8160;BME280;27404;52.398;9.646;2023-03-20T10:07:20;101123.84;;;10.26;100.00
8160;BME280;27404;52.398;9.646;2023-03-20T10:09:46;101129.56;;;10.17;100.00
8160;BME280;27404;52.398;9.646;2023-03-20T10:12:22;101128.78;;;10.10;100.00
8160;BME280;27404;52.398;9.646;2023-03-20T10:15:09;101130.44;;;10.11;100.00
8160;BME280;27404;52.398;9.646;2023-03-20T10:20:25;101130.25;;;10.45;100.00
8160;BME280;27404;52.398;9.646;2023-03-20T10:22:55;101133.38;;;10.48;100.00
8160;BME280;27404;52.398;9.646;2023-03-20T10:25:32;101134.72;;;10.39;100.00
8160;BME280;27404;52.398;9.646;2023-03-20T10:28:00;101130.38;;;10.57;100.00
8160;BME280;27404;52.398;9.646;2023-03-20T10:33:17;101125.91;;;10.62;100.00
8160;BME280;27404;52.398;9.646;2023-03-20T10:36:13;101120.72;;;10.98;100.00
8160;BME280;27404;52.398;9.646;2023-03-20T10:41:33;101123.31;;;10.68;100.00
8160;BME280;27404;52.398;9.646;2023-03-20T10:43:59;101116.88;;;10.80;100.00
8160;BME280;27404;52.398;9.646;2023-03-20T10:46:29;101126.44;;;10.71;100.00
8160;BME280;27404;52.398;9.646;2023-03-20T10:49:04;101113.13;;;11.00;100.00
8160;BME280;27404;52.398;9.646;2023-03-20T10:51:41;101126.06;;;11.11;100.00
8160;BME280;27404;52.398;9.646;2023-03-20T10:54:35;101117.69;;;11.25;100.00
8160;BME280;27404;52.398;9.646;2023-03-20T10:57:05;101122.31;;;11.06;100.00
8160;BME280;27404;52.398;9.646;2023-03-20T10:59:38;101126.97;;;11.24;100.00
8160;BME280;27404;52.398;9.646;2023-03-20T11:02:12;101107.72;;;11.12;100.00
8160;BME280;27404;52.398;9.646;2023-03-20T11:04:38;101115.53;;;10.90;100.00
8160;BME280;27404;52.398;9.646;2023-03-20T11:09:32;101102.84;;;10.95;100.00
8160;BME280;27404;52.398;9.646;2023-03-20T11:12:00;101103.59;;;11.03;100.00
8160;BME280;27404;52.398;9.646;2023-03-20T11:14:35;101099.59;;;11.24;100.00
8160;BME280;27404;52.398;9.646;2023-03-20T11:17:03;101098.59;;;11.37;100.00
8160;BME280;27404;52.398;9.646;2023-03-20T11:19:35;101100.38;;;11.13;100.00
8160;BME280;27404;52.398;9.646;2023-03-20T11:22:08;101096.44;;;10.64;100.00
8160;BME280;27404;52.398;9.646;2023-03-20T11:27:08;101096.09;;;10.98;100.00
8160;BME280;27404;52.398;9.646;2023-03-20T11:29:35;101099.00;;;10.59;100.00
8160;BME280;27404;52.398;9.646;2023-03-20T11:32:07;101085.81;;;10.75;100.00
8160;BME280;27404;52.398;9.646;2023-03-20T11:34:39;101089.66;;;10.67;100.00
8160;BME280;27404;52.398;9.646;2023-03-20T11:37:21;101087.09;;;10.54;100.00
8160;BME280;27404;52.398;9.646;2023-03-20T11:42:51;101079.56;;;10.17;100.00
8160;BME280;27404;52.398;9.646;2023-03-20T11:45:17;101081.56;;;10.28;100.00
8160;BME280;27404;52.398;9.646;2023-03-20T11:47:48;101088.22;;;10.14;100.00
8160;BME280;27404;52.398;9.646;2023-03-20T11:50:36;101076.31;;;10.01;100.00
8160;BME280;27404;52.398;9.646;2023-03-20T11:53:16;101078.69;;;10.23;100.00
8160;BME280;27404;52.398;9.646;2023-03-20T11:56:37;101074.59;;;10.32;100.00
8160;BME280;27404;52.398;9.646;2023-03-20T11:58:57;101051.13;;;10.50;100.00
8160;BME280;27404;52.398;9.646;2023-03-20T12:01:25;101051.72;;;10.77;100.00
8160;BME280;27404;52.398;9.646;2023-03-20T12:06:42;101058.63;;;10.99;100.00
8160;BME280;27404;52.398;9.646;2023-03-20T12:12:01;101047.38;;;11.25;97.35
8160;BME280;27404;52.398;9.646;2023-03-20T12:14:45;101050.72;;;11.28;100.00
8160;BME280;27404;52.398;9.646;2023-03-20T12:19:39;101062.00;;;11.31;96.07
8160;BME280;27404;52.398;9.646;2023-03-20T12:22:48;101049.59;;;10.98;94.70
8160;BME280;27404;52.398;9.646;2023-03-20T12:25:25;101062.13;;;11.24;94.92
8160;BME280;27404;52.398;9.646;2023-03-20T12:28:28;101057.97;;;11.52;90.21
8160;BME280;27404;52.398;9.646;2023-03-20T12:36:17;101058.00;;;10.59;92.82
8160;BME280;27404;52.398;9.646;2023-03-20T12:38:45;101055.25;;;10.59;93.98
8160;BME280;27404;52.398;9.646;2023-03-20T12:42:00;101063.09;;;10.56;95.40
8160;BME280;27404;52.398;9.646;2023-03-20T12:44:31;101056.06;;;10.85;98.81
8160;BME280;27404;52.398;9.646;2023-03-20T12:50:25;101053.16;;;10.99;96.24
8160;BME280;27404;52.398;9.646;2023-03-20T13:01:18;101047.00;;;11.22;91.58
8160;BME280;27404;52.398;9.646;2023-03-20T13:09:21;101036.78;;;11.29;95.17
8160;BME280;27404;52.398;9.646;2023-03-20T13:15:30;101030.59;;;11.22;90.64
8160;BME280;27404;52.398;9.646;2023-03-20T13:18:16;101030.91;;;10.95;94.15
8160;BME280;27404;52.398;9.646;2023-03-20T13:20:51;101023.91;;;10.99;95.93
8160;BME280;27404;52.398;9.646;2023-03-20T13:31:39;101025.34;;;11.02;95.76
8160;BME280;27404;52.398;9.646;2023-03-20T13:39:59;101017.16;;;11.32;94.40
8160;BME280;27404;52.398;9.646;2023-03-20T13:45:30;101013.03;;;11.11;93.09
8160;BME280;27404;52.398;9.646;2023-03-20T13:48:46;101010.44;;;10.98;95.63
8160;BME280;27404;52.398;9.646;2023-03-20T13:56:34;101004.34;;;11.14;96.04
8160;BME280;27404;52.398;9.646;2023-03-20T13:59:35;101000.13;;;11.30;95.62
8160;BME280;27404;52.398;9.646;2023-03-20T14:05:10;101001.28;;;11.41;92.55
8160;BME280;27404;52.398;9.646;2023-03-20T14:07:38;100999.53;;;11.28;90.70
8160;BME280;27404;52.398;9.646;2023-03-20T14:13:02;100996.19;;;10.77;95.97
8160;BME280;27404;52.398;9.646;2023-03-20T14:15:33;100994.06;;;10.79;98.63
8160;BME280;27404;52.398;9.646;2023-03-20T14:18:17;101002.03;;;10.99;95.02
8160;BME280;27404;52.398;9.646;2023-03-20T14:20:51;101006.03;;;11.15;95.72
8160;BME280;27404;52.398;9.646;2023-03-20T14:23:46;100994.94;;;11.10;95.04
8160;BME280;27404;52.398;9.646;2023-03-20T14:26:22;101002.75;;;11.25;94.11
8160;BME280;27404;52.398;9.646;2023-03-20T14:28:57;101000.09;;;11.18;95.82
8160;BME280;27404;52.398;9.646;2023-03-20T14:31:27;101004.84;;;10.92;96.78
8160;BME280;27404;52.398;9.646;2023-03-20T14:42:06;101004.25;;;10.72;100.00
8160;BME280;27404;52.398;9.646;2023-03-20T14:48:10;100999.38;;;10.55;100.00
8160;BME280;27404;52.398;9.646;2023-03-20T14:56:00;100998.00;;;10.20;100.00
8160;BME280;27404;52.398;9.646;2023-03-20T15:01:17;101000.00;;;10.06;100.00
8160;BME280;27404;52.398;9.646;2023-03-20T15:03:50;100999.88;;;9.95;100.00
8160;BME280;27404;52.398;9.646;2023-03-20T15:06:21;100998.63;;;9.97;100.00
8160;BME280;27404;52.398;9.646;2023-03-20T15:09:00;100999.34;;;10.11;100.00
8160;BME280;27404;52.398;9.646;2023-03-20T15:11:29;100999.16;;;10.06;100.00
8160;BME280;27404;52.398;9.646;2023-03-20T15:13:57;101007.59;;;10.04;100.00
8160;BME280;27404;52.398;9.646;2023-03-20T15:16:28;101001.09;;;9.99;100.00
8160;BME280;27404;52.398;9.646;2023-03-20T15:18:54;101008.75;;;9.90;100.00
8160;BME280;27404;52.398;9.646;2023-03-20T15:21:33;100995.94;;;9.90;100.00
8160;BME280;27404;52.398;9.646;2023-03-20T15:23:59;101009.97;;;9.94;100.00
8160;BME280;27404;52.398;9.646;2023-03-20T15:26:26;101002.56;;;9.76;100.00
8160;BME280;27404;52.398;9.646;2023-03-20T15:29:03;101010.09;;;9.81;100.00